Time;durP1;ratioP1;P1;durP2;ratioP2;P2;SDS_P1;SDS_P2;PMS_P1;PMS_P2;Temp;Humidity;BMP_temperature;BMP_pressure;BME280_temperature;BME280_humidity;BME280_pressure;Samples;Min_cycle;Max_cycle;Signal;HPM_P1;HPM_P2
2024/01/17 00:01:58;;;;;;;89.97;85.20;;;-0.30;99.90;;;;;;4980313;28;20050;-32
2024/01/17 00:04:24;;;;;;;69.30;65.70;;;-0.30;99.90;;;;;;4978245;28;20490;-33
2024/01/17 00:06:51;;;;;;;64.55;61.22;;;-0.30;99.90;;;;;;4978097;28;20050;-33
2024/01/17 00:09:17;;;;;;;59.40;55.92;;;-0.30;99.90;;;;;;4976673;28;20054;-33
2024/01/17 00:11:42;;;;;;;81.68;76.97;;;-0.20;99.90;;;;;;4984865;28;20053;-32
2024/01/17 00:14:11;;;;;;;63.78;60.13;;;-0.30;99.90;;;;;;4981177;28;20054;-33
2024/01/17 00:16:37;;;;;;;79.70;75.55;;;-0.30;99.90;;;;;;4978294;28;20422;-32
2024/01/17 00:19:03;;;;;;;57.92;54.58;;;-0.20;99.90;;;;;;4982454;28;20054;-33
2024/01/17 00:21:29;;;;;;;76.25;72.28;;;-0.20;99.90;;;;;;4981190;28;20054;-33
2024/01/17 00:23:55;;;;;;;94.93;89.93;;;-0.20;99.90;;;;;;4981528;28;20070;-33
2024/01/17 00:26:20;;;;;;;96.15;91.25;;;-0.30;99.90;;;;;;4963624;28;20062;-33
2024/01/17 00:28:46;;;;;;;87.70;83.10;;;-0.30;99.90;;;;;;4980787;28;20058;-34
2024/01/17 00:31:12;;;;;;;78.30;74.28;;;-0.30;99.90;;;;;;4988007;28;20062;-33
2024/01/17 00:33:38;;;;;;;107.10;101.80;;;-0.30;99.90;;;;;;4986124;28;20519;-33
2024/01/17 00:36:04;;;;;;;108.18;102.95;;;-0.30;99.90;;;;;;4983423;28;20447;-34
2024/01/17 00:38:33;;;;;;;96.35;91.55;;;-0.30;99.90;;;;;;4981428;28;20145;-34
2024/01/17 00:40:58;;;;;;;98.38;93.45;;;-0.30;99.90;;;;;;4982565;28;20050;-34
2024/01/17 00:43:24;;;;;;;112.10;106.63;;;-0.40;99.90;;;;;;4983329;28;20046;-33
2024/01/17 00:45:50;;;;;;;85.43;81.03;;;-0.40;99.90;;;;;;4981410;28;20062;-33
2024/01/17 00:48:17;;;;;;;87.00;82.45;;;-0.40;99.90;;;;;;4984055;28;20575;-34
2024/01/17 00:50:43;;;;;;;93.72;88.97;;;-0.50;99.90;;;;;;4984697;28;20057;-33
2024/01/17 00:53:08;;;;;;;97.50;92.63;;;-0.50;99.90;;;;;;4986031;28;20046;-33
2024/01/17 00:55:34;;;;;;;93.72;88.85;;;-0.50;99.90;;;;;;4986170;28;20054;-33
2024/01/17 00:58:00;;;;;;;77.05;73.10;;;-0.50;99.90;;;;;;4986398;28;20050;-33
2024/01/17 01:00:25;;;;;;;94.88;89.95;;;-0.50;99.90;;;;;;4989102;28;20101;-33
2024/01/17 01:02:51;;;;;;;90.68;86.20;;;-0.50;99.90;;;;;;4992845;28;20124;-33
2024/01/17 01:05:17;;;;;;;80.75;76.40;;;-0.50;99.90;;;;;;4983664;28;20068;-33
2024/01/17 01:07:47;;;;;;;73.18;69.15;;;-0.50;99.90;;;;;;4987213;28;20046;-33
2024/01/17 01:10:13;;;;;;;85.03;80.68;;;-0.50;99.90;;;;;;4981621;28;20140;-32
2024/01/17 01:12:39;;;;;;;83.95;79.60;;;-0.50;99.90;;;;;;4983806;28;20129;-32
2024/01/17 01:15:05;;;;;;;83.47;79.20;;;-0.50;99.90;;;;;;4985560;28;20568;-34
2024/01/17 01:17:31;;;;;;;86.47;81.97;;;-0.50;99.90;;;;;;4988440;28;20053;-33
2024/01/17 01:19:57;;;;;;;98.28;93.47;;;-0.50;99.90;;;;;;4989119;28;20353;-33
2024/01/17 01:22:23;;;;;;;92.22;87.47;;;-0.50;99.90;;;;;;4984367;28;20133;-33
2024/01/17 01:24:49;;;;;;;98.25;93.22;;;-0.40;99.90;;;;;;4984679;28;20081;-34
2024/01/17 01:27:15;;;;;;;90.53;86.10;;;-0.40;99.90;;;;;;4985383;28;20493;-41
2024/01/17 01:29:41;;;;;;;76.15;72.28;;;-0.40;99.90;;;;;;4986938;28;20053;-42
2024/01/17 01:32:07;;;;;;;76.65;72.53;;;-0.40;99.90;;;;;;4985349;28;20050;-41
2024/01/17 01:34:33;;;;;;;78.25;74.22;;;-0.50;99.90;;;;;;4987343;28;20512;-42
2024/01/17 01:37:00;;;;;;;83.47;79.03;;;-0.50;99.90;;;;;;4988402;28;20520;-42
2024/01/17 01:39:26;;;;;;;79.63;75.40;;;-0.60;99.90;;;;;;4984007;28;20061;-42
2024/01/17 01:41:52;;;;;;;83.20;78.38;;;-0.60;99.90;;;;;;4986886;28;20073;-42
2024/01/17 01:44:19;;;;;;;86.65;82.15;;;-0.60;99.90;;;;;;4983755;28;20519;-43
2024/01/17 01:46:47;;;;;;;109.18;103.68;;;-0.60;99.90;;;;;;4984357;28;20099;-41
2024/01/17 01:49:16;;;;;;;74.15;70.07;;;-0.70;99.90;;;;;;4981848;28;20536;-42
2024/01/17 01:51:44;;;;;;;90.93;86.13;;;-0.70;99.90;;;;;;4986218;28;20054;-42
2024/01/17 01:54:13;;;;;;;80.88;76.32;;;-0.70;99.90;;;;;;4985189;28;20083;-42
2024/01/17 01:56:40;;;;;;;85.85;81.38;;;-0.70;99.90;;;;;;4986683;28;20480;-42
2024/01/17 01:59:07;;;;;;;94.30;89.53;;;-0.70;99.90;;;;;;4985290;28;20055;-43
2024/01/17 02:01:33;;;;;;;77.28;73.20;;;-0.70;99.90;;;;;;4983882;28;20057;-42
2024/01/17 02:04:00;;;;;;;74.07;70.00;;;-0.70;99.90;;;;;;4987755;28;20057;-42
2024/01/17 02:06:33;;;;;;;83.95;79.30;;;-0.70;99.90;;;;;;4986681;28;20060;-43
2024/01/17 02:09:00;;;;;;;78.60;74.32;;;-0.80;99.90;;;;;;4982830;28;20112;-43
2024/01/17 02:11:31;;;;;;;72.53;68.38;;;-0.80;99.90;;;;;;4988201;28;20053;-42
2024/01/17 02:14:00;;;;;;;73.80;69.60;;;-0.80;99.90;;;;;;4987480;28;20050;-42
2024/01/17 02:16:26;;;;;;;79.78;75.45;;;-0.80;99.90;;;;;;4983051;28;21817;-41
2024/01/17 02:18:52;;;;;;;73.53;69.40;;;-0.80;99.90;;;;;;4982985;28;20405;-41
2024/01/17 02:21:18;;;;;;;73.85;69.80;;;-0.80;99.90;;;;;;4983088;28;20047;-41
2024/01/17 02:23:51;;;;;;;69.45;65.22;;;-0.80;99.90;;;;;;4985475;28;20152;-42
2024/01/17 02:26:16;;;;;;;72.93;68.68;;;-0.80;99.90;;;;;;4986553;28;20046;-41
2024/01/17 02:28:42;;;;;;;80.57;76.07;;;-0.90;99.90;;;;;;4988573;28;20119;-43
2024/01/17 02:31:09;;;;;;;70.90;66.80;;;-0.90;99.90;;;;;;4986465;28;20606;-43
2024/01/17 02:33:37;;;;;;;73.80;69.47;;;-0.90;99.90;;;;;;4982042;28;20051;-43
2024/01/17 02:36:03;;;;;;;75.53;71.00;;;-0.90;99.90;;;;;;4986239;28;20051;-43
2024/01/17 02:38:29;;;;;;;73.47;69.18;;;-0.90;99.90;;;;;;4985931;28;20046;-43
2024/01/17 02:40:55;;;;;;;72.63;68.35;;;-0.90;99.90;;;;;;4969424;28;20537;-42
2024/01/17 02:43:21;;;;;;;73.72;69.50;;;-0.90;99.90;;;;;;4984981;28;20042;-42
2024/01/17 02:45:46;;;;;;;76.28;72.00;;;-0.90;99.90;;;;;;4985422;28;20474;-42
2024/01/17 02:48:12;;;;;;;77.68;73.18;;;-0.80;99.90;;;;;;4986289;28;20042;-42
2024/01/17 02:50:39;;;;;;;76.78;72.53;;;-0.80;99.90;;;;;;4967460;28;20130;-42
2024/01/17 02:53:06;;;;;;;77.90;73.50;;;-0.80;99.90;;;;;;4985519;28;20050;-42
2024/01/17 02:55:32;;;;;;;79.22;74.50;;;-0.80;99.90;;;;;;4985654;28;20038;-40
2024/01/17 02:58:00;;;;;;;75.80;71.85;;;-0.80;99.90;;;;;;4985507;28;20054;-42
2024/01/17 03:00:26;;;;;;;87.30;82.57;;;-0.80;99.90;;;;;;4984691;28;20561;-42
2024/01/17 03:02:51;;;;;;;85.78;81.00;;;-0.80;99.90;;;;;;4986724;28;20058;-42
2024/01/17 03:05:17;;;;;;;75.35;71.05;;;-0.80;99.90;;;;;;4987274;28;20050;-42
2024/01/17 03:07:43;;;;;;;79.57;75.13;;;-0.80;99.90;;;;;;4987909;28;20046;-42
2024/01/17 03:10:12;;;;;;;73.57;69.25;;;-0.80;99.90;;;;;;4966602;28;20042;-43
2024/01/17 03:12:38;;;;;;;80.97;76.53;;;-0.90;99.90;;;;;;4983600;28;20058;-43
2024/01/17 03:15:06;;;;;;;74.85;70.53;;;-0.90;99.90;;;;;;4983444;28;20390;-41
2024/01/17 03:17:33;;;;;;;89.55;84.63;;;-0.90;99.90;;;;;;4983072;28;20060;-43
2024/01/17 03:19:59;;;;;;;78.30;73.70;;;-0.90;99.90;;;;;;4982812;28;20061;-41
2024/01/17 03:22:25;;;;;;;84.55;79.50;;;-0.90;99.90;;;;;;4980160;28;20491;-43
2024/01/17 03:24:51;;;;;;;87.10;82.03;;;-0.90;99.90;;;;;;4982417;28;20066;-41
2024/01/17 03:27:17;;;;;;;79.97;75.32;;;-0.90;99.90;;;;;;4983555;28;20045;-41
2024/01/17 03:29:42;;;;;;;73.10;68.95;;;-1.00;99.90;;;;;;4986914;28;20053;-42
2024/01/17 03:32:08;;;;;;;78.65;74.10;;;-1.00;99.90;;;;;;4983178;28;20050;-41
2024/01/17 03:34:34;;;;;;;87.07;81.93;;;-1.00;99.90;;;;;;4984170;28;20432;-42
2024/01/17 03:36:59;;;;;;;80.43;75.60;;;-1.00;99.90;;;;;;4984897;28;20050;-42
2024/01/17 03:39:25;;;;;;;75.80;70.95;;;-1.00;99.90;;;;;;4983941;28;20061;-42
2024/01/17 03:41:51;;;;;;;78.55;73.82;;;-1.10;99.90;;;;;;4988086;28;20076;-42
2024/01/17 03:44:17;;;;;;;92.57;87.35;;;-1.10;99.90;;;;;;4988055;28;20437;-43
2024/01/17 03:46:42;;;;;;;76.03;71.50;;;-1.10;99.90;;;;;;4983112;28;20046;-43
2024/01/17 03:49:08;;;;;;;81.85;77.13;;;-1.10;99.90;;;;;;4984193;28;20073;-40
2024/01/17 03:51:34;;;;;;;83.22;78.75;;;-1.10;99.90;;;;;;4982837;28;20133;-41
2024/01/17 03:53:59;;;;;;;83.03;78.10;;;-1.10;99.90;;;;;;4984530;28;21038;-41
2024/01/17 03:56:25;;;;;;;77.75;73.22;;;-1.10;99.90;;;;;;4986787;28;20137;-42
2024/01/17 03:58:51;;;;;;;82.97;78.25;;;-1.10;99.90;;;;;;4985949;28;20519;-42
2024/01/17 04:01:17;;;;;;;84.93;80.22;;;-1.10;99.90;;;;;;4967004;28;20057;-42
2024/01/17 04:03:43;;;;;;;70.30;66.15;;;-1.10;99.90;;;;;;4985297;28;20105;-42
2024/01/17 04:06:09;;;;;;;72.55;68.07;;;-1.10;99.90;;;;;;4988117;28;20129;-41
2024/01/17 04:08:35;;;;;;;75.50;71.13;;;-1.20;99.90;;;;;;4986297;28;20054;-41
2024/01/17 04:11:01;;;;;;;76.80;72.43;;;-1.10;99.90;;;;;;4984348;28;20050;-42
2024/01/17 04:13:26;;;;;;;94.68;89.45;;;-1.20;99.90;;;;;;4979900;28;20105;-41
2024/01/17 04:15:52;;;;;;;81.22;76.50;;;-1.20;99.90;;;;;;4980402;28;20057;-42
2024/01/17 04:18:18;;;;;;;79.95;75.38;;;-1.10;99.90;;;;;;4980916;28;20126;-41
2024/01/17 04:20:44;;;;;;;91.10;86.18;;;-1.20;99.90;;;;;;4982311;28;20046;-41
2024/01/17 04:23:10;;;;;;;74.88;70.38;;;-1.20;99.90;;;;;;4986387;28;20172;-41
2024/01/17 04:25:37;;;;;;;76.03;71.78;;;-1.10;99.90;;;;;;4988645;28;20472;-41
2024/01/17 04:28:06;;;;;;;77.00;72.60;;;-1.10;99.90;;;;;;4988005;28;20182;-41
2024/01/17 04:30:32;;;;;;;74.13;69.70;;;-1.10;99.90;;;;;;4985913;28;20510;-42
2024/01/17 04:32:58;;;;;;;77.15;72.78;;;-1.10;99.90;;;;;;4985730;28;20096;-42
2024/01/17 04:35:24;;;;;;;75.75;71.38;;;-1.10;99.90;;;;;;4983954;28;20054;-42
2024/01/17 04:37:49;;;;;;;76.35;71.88;;;-1.10;99.90;;;;;;4985400;28;20057;-42
2024/01/17 04:40:15;;;;;;;76.88;72.53;;;-1.10;99.90;;;;;;4987454;28;20054;-42
2024/01/17 04:42:41;;;;;;;74.75;70.43;;;-1.10;99.90;;;;;;4983097;28;20084;-41
2024/01/17 04:45:08;;;;;;;74.00;69.90;;;-1.10;99.90;;;;;;4988034;28;20527;-42
2024/01/17 04:47:33;;;;;;;117.55;111.40;;;-1.10;99.90;;;;;;4985484;28;20098;-41
2024/01/17 04:49:59;;;;;;;80.43;75.93;;;-1.10;99.90;;;;;;4990314;28;20420;-41
2024/01/17 04:52:25;;;;;;;79.68;75.15;;;-1.10;99.90;;;;;;4985723;28;20058;-42
2024/01/17 04:54:50;;;;;;;78.97;74.50;;;-1.10;99.90;;;;;;4987281;28;20582;-42
2024/01/17 04:57:16;;;;;;;75.00;70.63;;;-1.20;99.90;;;;;;4988693;28;20062;-42
2024/01/17 04:59:42;;;;;;;71.80;67.28;;;-1.20;99.90;;;;;;4987104;28;20101;-42
2024/01/17 05:02:08;;;;;;;74.57;70.30;;;-1.20;99.90;;;;;;4990005;28;20061;-41
2024/01/17 05:04:34;;;;;;;74.07;69.75;;;-1.20;99.90;;;;;;4989464;28;20069;-41
2024/01/17 05:07:00;;;;;;;69.10;65.05;;;-1.20;99.90;;;;;;4986501;28;20060;-42
2024/01/17 05:09:26;;;;;;;94.07;89.03;;;-1.20;99.90;;;;;;4987635;28;20050;-42
2024/01/17 05:11:52;;;;;;;68.40;64.50;;;-1.20;99.90;;;;;;4985075;28;20065;-42
2024/01/17 05:14:18;;;;;;;62.80;58.92;;;-1.20;99.90;;;;;;4969359;28;20119;-42
2024/01/17 05:16:44;;;;;;;67.90;63.80;;;-1.20;99.90;;;;;;4974655;28;20054;-42
2024/01/17 05:19:09;;;;;;;61.58;57.67;;;-1.20;99.90;;;;;;4983367;28;20061;-42
2024/01/17 05:21:35;;;;;;;102.93;97.45;;;-1.20;99.90;;;;;;4986433;28;20054;-41
2024/01/17 05:24:01;;;;;;;62.80;59.28;;;-1.20;99.90;;;;;;4981420;28;20128;-41
2024/01/17 05:26:26;;;;;;;66.97;63.22;;;-1.20;99.90;;;;;;4985821;28;20145;-42
2024/01/17 05:28:52;;;;;;;65.57;61.58;;;-1.20;99.90;;;;;;4986048;28;20054;-42
2024/01/17 05:31:18;;;;;;;64.18;60.22;;;-1.20;99.90;;;;;;4982728;28;20058;-42
2024/01/17 05:33:44;;;;;;;84.07;78.93;;;-1.20;99.90;;;;;;4983634;28;20046;-42
2024/01/17 05:36:10;;;;;;;83.63;79.25;;;-1.30;99.90;;;;;;4983101;28;20507;-42
2024/01/17 05:38:37;;;;;;;65.60;61.75;;;-1.30;99.90;;;;;;4982402;28;20042;-41
2024/01/17 05:41:03;;;;;;;65.28;61.15;;;-1.30;99.90;;;;;;4982447;28;20757;-41
2024/01/17 05:43:30;;;;;;;78.97;74.50;;;-1.30;99.90;;;;;;4982830;28;20054;-43
2024/01/17 05:45:58;;;;;;;87.28;82.55;;;-1.30;99.90;;;;;;4983053;28;20059;-43
2024/01/17 05:48:25;;;;;;;59.00;55.35;;;-1.40;99.90;;;;;;4984335;28;20043;-43
2024/01/17 05:50:50;;;;;;;90.68;86.18;;;-1.40;99.90;;;;;;4983619;28;20558;-42
2024/01/17 05:53:16;;;;;;;57.35;53.78;;;-1.40;99.90;;;;;;4981949;28;20054;-41
2024/01/17 05:55:42;;;;;;;102.57;97.28;;;-1.50;99.90;;;;;;4983274;28;20096;-42
2024/01/17 05:58:09;;;;;;;93.90;89.00;;;-1.50;99.90;;;;;;4983542;28;20105;-42
2024/01/17 06:00:35;;;;;;;55.35;51.60;;;-1.60;99.90;;;;;;4982017;28;20042;-43
2024/01/17 06:03:00;;;;;;;77.18;72.70;;;-1.60;99.90;;;;;;4983897;28;20093;-42
2024/01/17 06:05:26;;;;;;;53.75;50.55;;;-1.70;99.90;;;;;;4984011;28;20085;-42
2024/01/17 06:07:52;;;;;;;77.07;72.88;;;-1.70;99.90;;;;;;4981566;28;20402;-42
2024/01/17 06:10:18;;;;;;;91.55;86.82;;;-1.70;99.90;;;;;;4983013;28;20056;-42
2024/01/17 06:12:43;;;;;;;97.05;91.95;;;-1.80;99.90;;;;;;4965612;28;20775;-43
2024/01/17 06:15:11;;;;;;;93.25;88.00;;;-1.80;99.90;;;;;;4984130;28;20052;-43
2024/01/17 06:17:37;;;;;;;92.60;87.72;;;-1.80;99.90;;;;;;4982096;28;20060;-42
2024/01/17 06:20:04;;;;;;;72.75;68.70;;;-1.90;99.90;;;;;;4982188;28;20050;-41
2024/01/17 06:22:29;;;;;;;77.07;72.80;;;-1.90;99.90;;;;;;4982524;28;21111;-41
2024/01/17 06:24:55;;;;;;;77.57;73.28;;;-1.90;99.90;;;;;;4979761;28;20058;-41
2024/01/17 06:27:22;;;;;;;85.97;81.32;;;-1.90;99.90;;;;;;4982422;28;20497;-42
2024/01/17 06:29:48;;;;;;;87.13;82.53;;;-1.90;99.90;;;;;;4983545;28;20046;-42
2024/01/17 06:32:13;;;;;;;83.70;79.15;;;-2.00;99.90;;;;;;4982337;28;20382;-41
2024/01/17 06:34:39;;;;;;;78.50;74.20;;;-2.00;99.90;;;;;;4980152;28;20096;-41
2024/01/17 06:37:05;;;;;;;76.95;72.75;;;-2.00;99.90;;;;;;4980396;28;20058;-41
2024/01/17 06:39:32;;;;;;;77.88;73.82;;;-2.00;99.90;;;;;;4979472;28;20141;-41
2024/01/17 06:41:58;;;;;;;82.80;78.35;;;-2.00;99.90;;;;;;4976429;28;20117;-39
2024/01/17 06:44:25;;;;;;;74.53;70.28;;;-2.00;99.90;;;;;;4967241;28;20069;-41
2024/01/17 06:46:51;;;;;;;75.45;71.30;;;-2.00;99.90;;;;;;4972157;28;20074;-41
2024/01/17 06:49:17;;;;;;;80.75;76.60;;;-2.00;99.90;;;;;;4973957;28;20616;-41
2024/01/17 06:51:43;;;;;;;68.97;65.22;;;-2.00;99.90;;;;;;4979399;28;20129;-41
2024/01/17 06:54:09;;;;;;;77.55;73.35;;;-2.00;99.90;;;;;;4979561;28;20535;-40
2024/01/17 06:56:36;;;;;;;73.07;69.13;;;-2.00;99.90;;;;;;4977752;28;20213;-41
2024/01/17 06:59:02;;;;;;;84.00;79.40;;;-2.00;99.90;;;;;;4977818;28;20113;-40
2024/01/17 07:01:28;;;;;;;80.00;75.93;;;-2.00;99.90;;;;;;4976916;28;20055;-41
2024/01/17 07:03:54;;;;;;;81.20;76.90;;;-2.10;99.90;;;;;;4974669;28;20078;-42
2024/01/17 07:06:20;;;;;;;78.95;74.63;;;-2.10;99.90;;;;;;4977209;28;20073;-41
2024/01/17 07:08:46;;;;;;;74.10;70.28;;;-2.10;99.90;;;;;;4976428;28;20411;-41
2024/01/17 07:11:13;;;;;;;71.78;67.68;;;-2.10;99.90;;;;;;4976200;28;20050;-42
2024/01/17 07:13:39;;;;;;;82.10;77.35;;;-2.10;99.90;;;;;;4974668;28;20047;-41
2024/01/17 07:16:05;;;;;;;76.50;72.40;;;-2.10;99.90;;;;;;4984554;28;20050;-42
2024/01/17 07:18:33;;;;;;;74.72;70.65;;;-2.20;99.90;;;;;;4983087;28;20045;-41
2024/01/17 07:21:03;;;;;;;80.93;76.70;;;-2.20;99.90;;;;;;4966703;28;20091;-42
2024/01/17 07:23:29;;;;;;;78.47;74.30;;;-2.20;99.90;;;;;;4963092;28;20285;-42
2024/01/17 07:25:55;;;;;;;79.13;75.03;;;-2.20;99.90;;;;;;4984523;28;20145;-42
2024/01/17 07:28:20;;;;;;;74.55;70.53;;;-2.20;99.90;;;;;;4983348;28;20050;-42
2024/01/17 07:30:46;;;;;;;73.22;69.38;;;-2.20;99.90;;;;;;4982939;28;20057;-41
2024/01/17 07:33:12;;;;;;;75.75;71.60;;;-2.20;99.90;;;;;;4982902;28;20061;-42
2024/01/17 07:35:37;;;;;;;78.93;74.65;;;-2.20;99.90;;;;;;4984631;28;20050;-39
2024/01/17 07:38:03;;;;;;;91.22;86.55;;;-2.20;99.90;;;;;;4987549;28;20511;-41
2024/01/17 07:40:29;;;;;;;71.70;67.85;;;-2.20;99.90;;;;;;4982420;28;20155;-42
2024/01/17 07:42:55;;;;;;;56.05;52.90;;;-2.30;99.90;;;;;;4981741;28;20132;-41
2024/01/17 07:45:21;;;;;;;70.25;66.55;;;-2.30;99.90;;;;;;4984917;28;20051;-42
2024/01/17 07:47:47;;;;;;;73.13;68.95;;;-2.30;99.90;;;;;;4980873;28;20047;-42
2024/01/17 07:50:13;;;;;;;71.65;67.93;;;-2.30;99.90;;;;;;4987913;28;20066;-42
2024/01/17 07:52:40;;;;;;;68.50;64.70;;;-2.30;99.90;;;;;;4989603;28;20061;-42
2024/01/17 07:55:06;;;;;;;74.82;70.53;;;-2.30;99.90;;;;;;4982164;28;20050;-42
2024/01/17 07:57:31;;;;;;;64.75;61.35;;;-2.30;99.90;;;;;;4973327;28;20053;-41
2024/01/17 07:59:57;;;;;;;81.78;77.68;;;-2.30;99.90;;;;;;4974836;28;20089;-41
2024/01/17 08:02:23;;;;;;;77.10;72.90;;;-2.30;99.90;;;;;;4984349;28;20054;-42
2024/01/17 08:04:52;;;;;;;79.25;75.10;;;-2.30;99.90;;;;;;4987848;28;20092;-40
2024/01/17 08:07:24;;;;;;;56.92;53.63;;;-2.30;99.90;;;;;;4980880;28;20476;-41
2024/01/17 08:09:53;;;;;;;64.03;60.35;;;-2.30;99.90;;;;;;4990323;28;20107;-41
2024/01/17 08:12:19;;;;;;;54.22;51.05;;;-2.30;99.90;;;;;;4986202;28;20534;-39
2024/01/17 08:14:45;;;;;;;56.40;53.17;;;-2.30;99.90;;;;;;4963345;28;20054;-41
2024/01/17 08:17:11;;;;;;;80.97;76.30;;;-2.30;99.90;;;;;;4987458;28;20046;-42
2024/01/17 08:19:38;;;;;;;61.00;57.53;;;-2.20;99.90;;;;;;4989172;28;20042;-41
2024/01/17 08:22:04;;;;;;;66.30;62.45;;;-2.20;99.90;;;;;;4977974;28;20056;-40
2024/01/17 08:24:30;;;;;;;73.95;69.57;;;-2.20;99.90;;;;;;4988490;28;20055;-40
2024/01/17 08:26:57;;;;;;;62.67;59.22;;;-2.20;99.90;;;;;;4976767;28;20042;-41
2024/01/17 08:29:23;;;;;;;66.22;62.33;;;-2.20;99.90;;;;;;4991902;28;20112;-41
2024/01/17 08:31:49;;;;;;;71.93;67.85;;;-2.20;99.90;;;;;;4977359;28;20058;-41
2024/01/17 08:34:15;;;;;;;71.03;66.65;;;-2.10;99.90;;;;;;4980888;28;20066;-41
2024/01/17 08:36:41;;;;;;;63.10;59.53;;;-2.10;99.90;;;;;;4967399;28;20046;-39
2024/01/17 08:39:06;;;;;;;60.42;56.90;;;-2.10;99.90;;;;;;4979780;28;20061;-40
2024/01/17 08:41:33;;;;;;;55.92;52.80;;;-2.10;99.90;;;;;;4965348;28;20054;-41
2024/01/17 08:44:02;;;;;;;68.20;64.35;;;-2.00;99.90;;;;;;4980529;28;20496;-42
2024/01/17 08:46:28;;;;;;;66.82;63.00;;;-2.00;99.90;;;;;;4979429;28;20053;-42
2024/01/17 08:48:54;;;;;;;61.00;57.67;;;-2.00;99.90;;;;;;4983936;28;20054;-41
2024/01/17 08:51:21;;;;;;;68.30;64.38;;;-2.00;99.90;;;;;;4981792;28;20050;-41
2024/01/17 08:53:48;;;;;;;63.58;60.03;;;-2.00;99.90;;;;;;4980101;28;20144;-41
2024/01/17 08:56:14;;;;;;;69.78;65.90;;;-1.90;99.90;;;;;;4981749;28;20049;-41
2024/01/17 08:58:42;;;;;;;65.45;61.67;;;-1.90;99.90;;;;;;4993269;28;20092;-41
2024/01/17 09:01:11;;;;;;;62.75;59.22;;;-1.80;99.90;;;;;;4983187;28;20669;-41
2024/01/17 09:03:38;;;;;;;74.03;70.13;;;-1.70;99.90;;;;;;4988483;28;20043;-42
2024/01/17 09:06:04;;;;;;;78.78;74.40;;;-1.70;99.90;;;;;;4984042;28;20045;-42
2024/01/17 09:08:29;;;;;;;76.45;72.15;;;-1.70;99.90;;;;;;4990491;28;20514;-41
2024/01/17 09:10:55;;;;;;;76.35;72.13;;;-1.60;99.90;;;;;;4988273;28;20055;-42
2024/01/17 09:13:23;;;;;;;78.30;73.88;;;-1.60;99.90;;;;;;4989285;28;20488;-41
2024/01/17 09:15:49;;;;;;;77.50;73.30;;;-1.60;99.90;;;;;;4988093;28;20053;-40
2024/01/17 09:18:18;;;;;;;74.93;70.95;;;-1.60;99.90;;;;;;4990584;28;20423;-41
2024/01/17 09:20:45;;;;;;;81.60;77.07;;;-1.60;99.90;;;;;;4982410;28;20528;-42
2024/01/17 09:23:11;;;;;;;86.07;81.43;;;-1.50;99.90;;;;;;4990899;28;20065;-43
2024/01/17 09:25:36;;;;;;;96.15;90.93;;;-1.50;99.90;;;;;;4989086;28;20050;-41
2024/01/17 09:28:02;;;;;;;76.82;72.78;;;-1.40;99.90;;;;;;4974130;28;20066;-42
2024/01/17 09:30:28;;;;;;;96.40;91.43;;;-1.40;99.90;;;;;;4983377;28;20394;-42
2024/01/17 09:32:53;;;;;;;103.25;97.85;;;-1.40;99.90;;;;;;4988219;28;20062;-41
2024/01/17 09:35:19;;;;;;;122.13;116.03;;;-1.40;99.90;;;;;;4989841;28;20054;-42
2024/01/17 09:37:45;;;;;;;121.68;115.30;;;-1.30;99.90;;;;;;4992420;28;20050;-41
2024/01/17 09:40:13;;;;;;;113.65;107.78;;;-1.30;99.90;;;;;;4992070;28;20156;-41
2024/01/17 09:42:40;;;;;;;118.15;112.22;;;-1.30;99.90;;;;;;4981902;28;20477;-42
2024/01/17 09:45:09;;;;;;;122.60;116.50;;;-1.20;99.90;;;;;;4985549;28;20053;-40
2024/01/17 09:47:38;;;;;;;124.28;118.30;;;-1.20;99.90;;;;;;4984565;28;20058;-41
2024/01/17 09:50:04;;;;;;;121.97;115.95;;;-1.20;99.90;;;;;;4987881;28;20548;-41
2024/01/17 09:52:32;;;;;;;127.43;121.05;;;-1.20;99.90;;;;;;4986927;28;20058;-41
2024/01/17 09:55:00;;;;;;;151.80;144.65;;;-1.20;99.90;;;;;;4982236;28;20528;-41
2024/01/17 09:57:28;;;;;;;151.30;144.18;;;-1.20;99.90;;;;;;4987905;28;20108;-40
2024/01/17 09:59:59;;;;;;;142.77;136.02;;;-1.20;99.90;;;;;;4987194;28;20560;-41
2024/01/17 10:02:27;;;;;;;142.32;135.20;;;-1.10;99.90;;;;;;4984982;28;20508;-41
2024/01/17 10:04:54;;;;;;;155.35;148.02;;;-1.10;99.90;;;;;;4988604;28;20062;-42
2024/01/17 10:07:20;;;;;;;167.95;160.10;;;-1.10;99.90;;;;;;4978408;28;20064;-43
2024/01/17 10:09:46;;;;;;;173.02;164.90;;;-1.10;99.90;;;;;;4989965;28;20137;-42
2024/01/17 10:12:18;;;;;;;87.57;82.63;;;-1.00;99.90;;;;;;4985681;28;20049;-40
2024/01/17 10:14:44;;;;;;;164.90;157.38;;;-1.00;99.90;;;;;;4987533;28;20042;-42
2024/01/17 10:17:10;;;;;;;180.55;171.98;;;-0.90;99.90;;;;;;4983954;28;20042;-40
2024/01/17 10:19:36;;;;;;;164.60;156.85;;;-0.90;99.90;;;;;;4992134;28;20057;-41
2024/01/17 10:22:04;;;;;;;159.55;151.85;;;-0.90;99.90;;;;;;4986801;28;20055;-41
2024/01/17 10:24:36;;;;;;;95.30;90.05;;;-0.90;99.90;;;;;;4993513;28;20465;-42
2024/01/17 10:27:03;;;;;;;178.10;169.93;;;-0.80;99.90;;;;;;4985619;28;20487;-42
2024/01/17 10:29:36;;;;;;;94.78;89.72;;;-0.80;99.90;;;;;;4987869;28;20054;-41
2024/01/17 10:32:02;;;;;;;172.00;164.02;;;-0.70;99.90;;;;;;4987703;28;20061;-41
2024/01/17 10:34:28;;;;;;;104.40;98.93;;;-0.60;99.90;;;;;;4981444;28;20137;-41
2024/01/17 10:36:57;;;;;;;103.10;97.65;;;-0.60;99.90;;;;;;4988205;28;20391;-41
2024/01/17 10:39:28;;;;;;;101.68;96.18;;;-0.60;99.90;;;;;;4982532;28;20186;-42
2024/01/17 10:41:56;;;;;;;112.03;106.05;;;-0.50;99.90;;;;;;4992396;28;20046;-43
2024/01/17 10:44:23;;;;;;;106.10;100.75;;;-0.50;99.90;;;;;;4989609;28;20062;-42
2024/01/17 10:46:52;;;;;;;109.07;103.30;;;-0.40;99.90;;;;;;4981236;28;20100;-42
2024/01/17 10:49:19;;;;;;;113.13;107.35;;;-0.40;99.90;;;;;;4988075;28;20056;-42
2024/01/17 10:52:09;;;;;;;102.82;97.53;;;-0.40;99.90;;;;;;4971459;28;20113;-42
2024/01/17 10:54:49;;;;;;;104.68;99.35;;;-0.30;99.90;;;;;;4983280;28;20504;-42
2024/01/17 10:57:18;;;;;;;107.15;101.50;;;-0.30;99.90;;;;;;4988862;28;20485;-42
2024/01/17 10:59:49;;;;;;;113.22;107.47;;;-0.30;99.90;;;;;;4990774;28;20060;-42
2024/01/17 11:02:24;;;;;;;105.75;100.47;;;-0.20;99.90;;;;;;4966607;28;20049;-42
2024/01/17 11:05:00;;;;;;;92.90;87.97;;;-0.20;99.90;;;;;;4990613;28;20046;-40
2024/01/17 11:07:27;;;;;;;93.60;88.75;;;-0.20;99.90;;;;;;4987998;28;20042;-41
2024/01/17 11:09:53;;;;;;;106.65;101.30;;;-0.20;99.90;;;;;;4988465;28;20065;-41
2024/01/17 11:12:21;;;;;;;98.43;93.55;;;-0.20;99.90;;;;;;4978468;28;20416;-42
2024/01/17 11:14:49;;;;;;;91.85;87.07;;;-0.20;99.90;;;;;;4984623;28;20200;-42
2024/01/17 11:17:16;;;;;;;105.43;100.05;;;-0.20;99.90;;;;;;4974839;28;20051;-42
2024/01/17 11:19:44;;;;;;;100.43;95.28;;;-0.20;99.90;;;;;;4991092;28;20058;-42
2024/01/17 11:22:16;;;;;;;93.47;88.65;;;-0.20;99.90;;;;;;4983852;28;20445;-42
2024/01/17 11:25:02;;;;;;;101.33;96.00;;;-0.20;99.90;;;;;;4978625;28;20050;-42
2024/01/17 11:27:57;;;;;;;86.82;82.18;;;-0.20;99.90;;;;;;4992708;28;20042;-41
2024/01/17 11:30:53;;;;;;;141.40;134.82;;;-0.20;99.90;;;;;;4984896;28;20133;-42
2024/01/17 11:33:19;;;;;;;95.50;90.22;;;-0.20;99.90;;;;;;4974142;28;20074;-42
2024/01/17 11:35:48;;;;;;;97.57;92.38;;;-0.10;99.90;;;;;;4985723;28;20049;-41
2024/01/17 11:38:23;;;;;;;88.50;83.72;;;-0.10;99.90;;;;;;4984724;28;20053;-41
2024/01/17 11:41:01;;;;;;;90.28;85.57;;;-0.10;99.90;;;;;;4981819;28;20153;-42
2024/01/17 11:43:33;;;;;;;86.50;81.97;;;0.00;99.90;;;;;;4977461;28;20113;-42
2024/01/17 11:46:00;;;;;;;90.20;85.53;;;0.00;99.90;;;;;;4976373;28;20060;-41
2024/01/17 11:48:29;;;;;;;93.97;88.88;;;0.10;99.90;;;;;;4979553;28;20050;-41
2024/01/17 11:51:01;;;;;;;92.70;87.95;;;0.10;99.90;;;;;;4980943;28;21337;-42
2024/01/17 11:53:28;;;;;;;93.47;88.78;;;0.10;99.90;;;;;;4987565;28;20055;-42
2024/01/17 11:55:59;;;;;;;75.45;71.45;;;0.20;99.90;;;;;;4982325;28;20050;-41
2024/01/17 11:58:42;;;;;;;77.88;73.85;;;0.20;99.90;;;;;;4991511;28;20535;-41
2024/01/17 12:01:30;;;;;;;62.42;58.97;;;0.20;99.90;;;;;;4957534;28;20051;-42
2024/01/17 12:03:56;;;;;;;49.53;46.47;;;0.30;99.90;;;;;;4947900;28;20550;-41
2024/01/17 12:06:22;;;;;;;44.40;41.83;;;0.30;99.90;;;;;;4956527;28;20133;-42
2024/01/17 12:08:49;;;;;;;36.80;34.28;;;0.30;99.90;;;;;;4984651;28;20465;-41
2024/01/17 12:11:15;;;;;;;32.42;30.13;;;0.20;99.90;;;;;;4957139;28;20417;-42
2024/01/17 12:13:41;;;;;;;25.63;23.73;;;0.20;99.90;;;;;;4960058;28;20174;-40
2024/01/17 12:16:11;;;;;;;23.65;21.98;;;0.30;99.90;;;;;;4953338;28;20394;-41
2024/01/17 12:18:37;;;;;;;26.30;24.42;;;0.30;99.90;;;;;;4957112;28;20046;-42
2024/01/17 12:21:04;;;;;;;21.10;19.40;;;0.30;99.90;;;;;;4947455;28;20059;-42
2024/01/17 12:23:31;;;;;;;20.65;19.02;;;0.30;99.90;;;;;;4969847;28;20165;-42
2024/01/17 12:25:59;;;;;;;16.42;14.88;;;0.30;99.90;;;;;;4977086;28;20145;-42